KTCS/TCS METAR and TAF weather

Enter ICAO airport designator
Station Type Date Time Source
KTCS METAR 2021/06/24 04:53 UTC NOAA

KTCS 240453Z AUTO 31025G36KT 10SM FEW110 28/09 A3007 RMK AO2 PK WND 31036/0452 SLP078 T02830089


Station Type Date Time Source
KTCS Decoded METAR 2021/06/24 04:53 UTC NOAA

TRUTH OR CONSEQUENCES MUNI, NM, United States (KTCS) 33-14N 107-16W 1469M
Jun 24, 2021 - 12:53 AM EDT / 2021.06.24 0453 UTC
Wind: from the NW (310 degrees) at 29 MPH (25 KT) gusting to 41 MPH (36 KT):0
Visibility: 10 mile(s):0
Sky conditions: mostly clear
Temperature: 82.9 F (28.3 C)
Dew Point: 48.0 F (8.9 C)
Relative Humidity: 29%
Pressure (altimeter): 30.07 in. Hg (1018 hPa)
ob: KTCS 240453Z AUTO 31025G36KT 10SM FEW110 28/09 A3007 RMK AO2 PK WND 31036/0452 SLP078 T02830089
cycle: 5

Station Type Date Time Source
KTCS TAF 2021/06/23 18:22 UTC NOAA

TAF KTCS 231720Z 2318/2418 17006KT P6SM FEW120 SCT200
FM232300 30015G25KT P6SM VCTS SCT080CB SCT120 BKN200
FM240600 33010KT P6SM SCT120 BKN200

Example: see airport list